Time;durP1;ratioP1;P1;durP2;ratioP2;P2;SDS_P1;SDS_P2;PMS_P1;PMS_P2;Temp;Humidity;BMP_temperature;BMP_pressure;BME280_temperature;BME280_humidity;BME280_pressure;Samples;Min_cycle;Max_cycle;Signal;HPM_P1;HPM_P2
2022/07/04 00:00:11;;;;;;;;;;;20.40;99.90;;;;;;5063555;28;19912;-82
2022/07/04 00:02:37;;;;;;;;;;;20.40;99.90;;;;;;5061929;28;20023;-82
2022/07/04 00:05:03;;;;;;;;;;;20.30;99.90;;;;;;5059847;28;19928;-81
2022/07/04 00:07:29;;;;;;;;;;;20.40;99.90;;;;;;5060814;28;19965;-82
2022/07/04 00:09:54;;;;;;;;;;;20.50;99.90;;;;;;5060384;28;19981;-81
2022/07/04 00:12:20;;;;;;;;;;;20.70;99.90;;;;;;5061610;28;23765;-79
2022/07/04 00:14:45;;;;;;;;;;;20.50;99.90;;;;;;5059621;28;19912;-80
2022/07/04 00:17:11;;;;;;;;;;;20.70;99.90;;;;;;5060131;28;19962;-80
2022/07/04 00:19:37;;;;;;;;;;;20.70;99.90;;;;;;5057835;28;19947;-81
2022/07/04 00:22:03;;;;;;;;;;;20.60;99.90;;;;;;5059288;28;19916;-81
2022/07/04 00:27:04;;;;;;;;;;;20.60;99.90;;;;;;6026368;22;20041;-83
2022/07/04 00:29:30;;;;;;;;;;;20.60;99.90;;;;;;5077002;22;20637;-77
2022/07/04 00:31:55;;;;;;;;;;;20.60;99.90;;;;;;5046230;22;20387;-84
2022/07/04 00:34:21;;;;;;;;;;;20.60;99.90;;;;;;5027075;28;19912;-83
2022/07/04 00:36:46;;;;;;;;;;;20.50;99.90;;;;;;5022689;28;19913;-84
2022/07/04 00:39:12;;;;;;;;;;;20.50;99.90;;;;;;5024906;28;19956;-84
2022/07/04 00:41:37;;;;;;;;;;;20.50;99.90;;;;;;5024106;28;19913;-83
2022/07/04 00:44:04;;;;;;;;;;;20.30;99.90;;;;;;5021597;28;20416;-83
2022/07/04 00:46:30;;;;;;;;;;;20.30;99.90;;;;;;5022688;28;19920;-83
2022/07/04 00:48:55;;;;;;;;;;;20.20;99.90;;;;;;5023355;28;19913;-84
2022/07/04 00:51:21;;;;;;;;;;;20.30;99.90;;;;;;5023084;28;19962;-83
2022/07/04 00:53:47;;;;;;;;;;;20.20;99.90;;;;;;5023240;28;19916;-83
2022/07/04 00:56:12;;;;;;;;;;;20.30;99.90;;;;;;5023541;28;19913;-83
2022/07/04 00:58:38;;;;;;;;;;;20.20;99.90;;;;;;5023298;28;19913;-84
2022/07/04 01:01:04;;;;;;;;;;;20.10;99.90;;;;;;5005222;28;20011;-84
2022/07/04 01:03:29;;;;;;;;;;;20.00;99.90;;;;;;5021780;28;19924;-84
2022/07/04 01:05:55;;;;;;;;;;;19.90;99.90;;;;;;5005241;28;19921;-83
2022/07/04 01:08:21;;;;;;;;;;;19.80;99.90;;;;;;5021513;28;19964;-83
2022/07/04 01:10:47;;;;;;;;;;;19.70;99.90;;;;;;5023001;28;19935;-83
2022/07/04 01:13:19;;;;;;;;;;;19.70;99.90;;;;;;5023311;28;19935;-83
2022/07/04 01:15:45;;;;;;;;;;;19.80;99.90;;;;;;5023629;28;19917;-83
2022/07/04 01:18:10;;;;;;;;;;;19.80;99.90;;;;;;5022850;28;19935;-84
2022/07/04 01:20:36;;;;;;;;;;;19.80;99.90;;;;;;5023486;28;20031;-84
2022/07/04 01:23:02;;;;;;;;;;;19.80;99.90;;;;;;5022853;28;20462;-83
2022/07/04 01:25:27;;;;;;;;;;;19.70;99.90;;;;;;5023615;28;19928;-82
2022/07/04 01:27:54;;;;;;;;;;;20.10;99.90;;;;;;5022511;28;19932;-83
2022/07/04 01:30:20;;;;;;;;;;;19.90;99.90;;;;;;5023115;28;19916;-83
2022/07/04 01:32:45;;;;;;;;;;;20.10;99.90;;;;;;5011227;28;19928;-83
2022/07/04 01:35:12;;;;;;;;;;;20.00;99.90;;;;;;5023363;28;20008;-82
2022/07/04 01:37:38;;;;;;;;;;;19.90;99.90;;;;;;5022384;28;20020;-83
2022/07/04 01:40:04;;;;;;;;;;;19.90;99.90;;;;;;5022580;28;20002;-83
2022/07/04 01:42:30;;;;;;;;;;;19.90;99.90;;;;;;5022063;28;19944;-83
2022/07/04 01:44:55;;;;;;;;;;;19.90;99.90;;;;;;5023051;28;20457;-83
2022/07/04 01:47:21;;;;;;;;;;;19.90;99.90;;;;;;5022830;28;19913;-83
2022/07/04 01:49:46;;;;;;;;;;;19.90;99.90;;;;;;5022348;28;19996;-83
2022/07/04 01:52:13;;;;;;;;;;;20.00;99.90;;;;;;5004847;28;20301;-83
2022/07/04 01:54:38;;;;;;;;;;;20.00;99.90;;;;;;5015923;28;20003;-83
2022/07/04 01:57:04;;;;;;;;;;;19.90;99.90;;;;;;5023120;28;20027;-83
2022/07/04 02:02:13;;;;;;;;;;;19.90;99.90;;;;;;5022318;28;19920;-84
2022/07/04 02:04:39;;;;;;;;;;;19.90;99.90;;;;;;5020017;28;19924;-83
2022/07/04 02:07:04;;;;;;;;;;;19.80;99.90;;;;;;5024161;28;19917;-83
2022/07/04 02:09:31;;;;;;;;;;;19.70;99.90;;;;;;5022169;28;19913;-83
2022/07/04 02:14:41;;;;;;;;;;;19.70;99.90;;;;;;5019299;28;20591;-83
2022/07/04 02:17:07;;;;;;;;;;;19.80;99.90;;;;;;5021671;28;19927;-83
2022/07/04 02:19:32;;;;;;;;;;;19.80;99.90;;;;;;5021461;28;19917;-83
2022/07/04 02:21:58;;;;;;;;;;;19.70;99.90;;;;;;5022162;28;20031;-83
2022/07/04 02:24:23;;;;;;;;;;;19.70;99.90;;;;;;5022112;28;19960;-82
2022/07/04 02:26:49;;;;;;;;;;;19.70;99.90;;;;;;5021456;28;19928;-83
2022/07/04 02:29:15;;;;;;;;;;;19.70;99.90;;;;;;5022866;28;19975;-84
2022/07/04 02:31:40;;;;;;;;;;;19.70;99.90;;;;;;5024009;28;19921;-82
2022/07/04 02:34:06;;;;;;;;;;;19.70;99.90;;;;;;5022010;28;19920;-83
2022/07/04 02:36:31;;;;;;;;;;;19.60;99.90;;;;;;5022741;28;19923;-84
2022/07/04 02:38:57;;;;;;;;;;;19.70;99.90;;;;;;5022213;28;19913;-84
2022/07/04 02:41:22;;;;;;;;;;;19.70;99.90;;;;;;5021935;28;19913;-84
2022/07/04 02:43:48;;;;;;;;;;;19.70;99.90;;;;;;5021099;28;19917;-83
2022/07/04 02:46:13;;;;;;;;;;;19.70;99.90;;;;;;5023120;28;19917;-84
2022/07/04 02:48:39;;;;;;;;;;;19.70;99.90;;;;;;5021523;28;20005;-83
2022/07/04 02:51:04;;;;;;;;;;;19.70;99.90;;;;;;5021963;28;19963;-83
2022/07/04 02:53:30;;;;;;;;;;;19.80;99.90;;;;;;5020873;28;20618;-83
2022/07/04 02:55:55;;;;;;;;;;;19.80;99.90;;;;;;5022174;28;20399;-83
2022/07/04 02:58:21;;;;;;;;;;;19.70;99.90;;;;;;5020991;28;19912;-83
2022/07/04 03:00:46;;;;;;;;;;;19.70;99.90;;;;;;5023096;28;20011;-83
2022/07/04 03:03:12;;;;;;;;;;;19.70;99.90;;;;;;5025078;28;20004;-83
2022/07/04 03:05:37;;;;;;;;;;;19.70;99.90;;;;;;5024527;28;20027;-83
2022/07/04 03:08:03;;;;;;;;;;;19.70;99.90;;;;;;5024741;28;19914;-83
2022/07/04 03:10:28;;;;;;;;;;;19.70;99.90;;;;;;5025056;28;19913;-82
2022/07/04 03:12:54;;;;;;;;;;;19.70;99.90;;;;;;5024632;28;19925;-83
2022/07/04 03:15:19;;;;;;;;;;;19.70;99.90;;;;;;5007835;28;19971;-83
2022/07/04 03:17:45;;;;;;;;;;;19.40;99.90;;;;;;5025162;28;19967;-83
2022/07/04 03:20:11;;;;;;;;;;;19.50;99.90;;;;;;5024685;28;20409;-83
2022/07/04 03:22:36;;;;;;;;;;;19.50;99.90;;;;;;5008361;28;19920;-84
2022/07/04 03:25:02;;;;;;;;;;;19.60;99.90;;;;;;5025015;28;20546;-83
2022/07/04 03:27:28;;;;;;;;;;;19.50;99.90;;;;;;5024060;28;19917;-83
2022/07/04 03:29:53;;;;;;;;;;;19.40;99.90;;;;;;5025159;28;19917;-83
2022/07/04 03:32:19;;;;;;;;;;;19.40;99.90;;;;;;5009190;28;19928;-83
2022/07/04 03:34:44;;;;;;;;;;;19.40;99.90;;;;;;5024773;28;20039;-83
2022/07/04 03:37:09;;;;;;;;;;;19.40;99.90;;;;;;5025334;28;19971;-83
2022/07/04 03:39:35;;;;;;;;;;;19.40;99.90;;;;;;5007296;28;20329;-82
2022/07/04 03:42:01;;;;;;;;;;;19.40;99.90;;;;;;5023218;28;19920;-83
2022/07/04 03:44:26;;;;;;;;;;;19.50;99.90;;;;;;5024851;28;19923;-83
2022/07/04 03:46:52;;;;;;;;;;;19.50;99.90;;;;;;5023918;28;20405;-83
2022/07/04 03:49:17;;;;;;;;;;;19.50;99.90;;;;;;5025141;28;19988;-83
2022/07/04 03:51:43;;;;;;;;;;;19.40;99.90;;;;;;5025897;28;19921;-83
2022/07/04 03:54:08;;;;;;;;;;;19.10;99.90;;;;;;5024775;28;19909;-83
2022/07/04 03:56:34;;;;;;;;;;;19.00;99.90;;;;;;5025714;28;19909;-84
2022/07/04 03:58:59;;;;;;;;;;;18.90;99.90;;;;;;5024920;28;20003;-84
2022/07/04 04:01:25;;;;;;;;;;;18.70;99.90;;;;;;5006811;28;19978;-83
2022/07/04 04:06:34;;;;;;;;;;;18.40;99.90;;;;;;5023564;28;20446;-82
2022/07/04 04:09:00;;;;;;;;;;;18.40;99.90;;;;;;5023545;28;19917;-82
2022/07/04 04:11:25;;;;;;;;;;;18.40;99.90;;;;;;5023832;28;20000;-81
2022/07/04 04:13:51;;;;;;;;;;;18.30;99.90;;;;;;5023797;28;19927;-82
2022/07/04 04:16:16;;;;;;;;;;;18.40;99.90;;;;;;5024405;28;20004;-81
2022/07/04 04:18:42;;;;;;;;;;;18.50;99.90;;;;;;5024252;28;19912;-82
2022/07/04 04:21:07;;;;;;;;;;;18.70;99.90;;;;;;5024312;28;19913;-81
2022/07/04 04:23:33;;;;;;;;;;;18.70;99.90;;;;;;5005860;28;21829;-80
2022/07/04 04:25:58;;;;;;;;;;;18.60;99.90;;;;;;5019004;28;19924;-86
2022/07/04 04:28:24;;;;;;;;;;;18.70;99.90;;;;;;5003908;28;19912;-85
2022/07/04 04:30:50;;;;;;;;;;;18.80;99.90;;;;;;5004742;28;19963;-84
2022/07/04 04:33:15;;;;;;;;;;;18.90;99.90;;;;;;5038071;28;19920;-86
2022/07/04 04:35:41;;;;;;;;;;;18.70;99.90;;;;;;5025067;28;19913;-86
2022/07/04 04:38:06;;;;;;;;;;;18.50;99.90;;;;;;5004845;28;19909;-86
2022/07/04 04:40:32;;;;;;;;;;;18.30;99.90;;;;;;5004946;28;19963;-85
2022/07/04 04:42:57;;;;;;;;;;;18.20;99.90;;;;;;5022766;28;19991;-86
2022/07/04 04:45:23;;;;;;;;;;;18.30;99.90;;;;;;5023718;28;20008;-85
2022/07/04 04:47:48;;;;;;;;;;;18.20;99.90;;;;;;5024321;28;20400;-85
2022/07/04 04:50:14;;;;;;;;;;;18.20;99.90;;;;;;5024050;28;19978;-86
2022/07/04 04:52:43;;;;;;;;;;;18.10;99.90;;;;;;5024623;28;19913;-87
2022/07/04 04:55:08;;;;;;;;;;;18.10;99.90;;;;;;5022074;28;19948;-87
2022/07/04 04:57:34;;;;;;;;;;;18.20;99.90;;;;;;5023173;28;19967;-86
2022/07/04 05:00:00;;;;;;;;;;;18.60;99.90;;;;;;5005339;28;19954;-87
2022/07/04 05:02:28;;;;;;;;;;;19.20;99.90;;;;;;5025103;28;20020;-86
2022/07/04 05:04:54;;;;;;;;;;;20.00;99.90;;;;;;5006469;28;19917;-87
2022/07/04 05:07:19;;;;;;;;;;;21.20;98.80;;;;;;5027524;28;20702;-87
2022/07/04 05:09:45;;;;;;;;;;;21.70;96.10;;;;;;5024002;28;20389;-89
2022/07/04 05:12:10;;;;;;;;;;;22.10;93.30;;;;;;5024206;28;19913;-87
2022/07/04 05:14:36;;;;;;;;;;;22.30;94.10;;;;;;5021954;28;19913;-88
2022/07/04 05:17:01;;;;;;;;;;;21.80;96.50;;;;;;5006796;28;19909;-88
2022/07/04 05:19:27;;;;;;;;;;;21.30;99.90;;;;;;5022055;28;19913;-88
2022/07/04 05:21:53;;;;;;;;;;;21.20;99.90;;;;;;5024687;28;19913;-87
2022/07/04 05:24:18;;;;;;;;;;;21.30;99.90;;;;;;5022608;28;20019;-91
2022/07/04 05:26:44;;;;;;;;;;;21.70;97.30;;;;;;5027386;28;19959;-92
2022/07/04 05:29:10;;;;;;;;;;;21.60;99.60;;;;;;5025968;28;19913;-90
2022/07/04 05:31:38;;;;;;;;;;;21.30;99.90;;;;;;5028595;28;20033;-92
2022/07/04 05:34:03;;;;;;;;;;;21.20;98.40;;;;;;5016273;28;19920;-91
2022/07/04 05:36:29;;;;;;;;;;;21.90;97.20;;;;;;5021786;28;19913;-92
2022/07/04 05:38:55;;;;;;;;;;;21.70;95.70;;;;;;5023805;28;20385;-87
2022/07/04 05:41:20;;;;;;;;;;;21.80;95.60;;;;;;5025098;28;19909;-87
2022/07/04 05:43:46;;;;;;;;;;;21.90;91.80;;;;;;5023969;28;19987;-85
2022/07/04 05:46:11;;;;;;;;;;;22.20;92.00;;;;;;5023805;28;20457;-86
2022/07/04 05:48:39;;;;;;;;;;;22.10;92.70;;;;;;5022439;28;19947;-86
2022/07/04 05:51:05;;;;;;;;;;;21.90;93.00;;;;;;5023542;28;19939;-87
2022/07/04 05:53:31;;;;;;;;;;;22.00;93.10;;;;;;5022712;28;20180;-87
2022/07/04 05:55:57;;;;;;;;;;;22.60;91.20;;;;;;5023597;28;19909;-81
2022/07/04 05:58:23;;;;;;;;;;;23.90;90.00;;;;;;5023388;28;20301;-83
2022/07/04 06:00:48;;;;;;;;;;;25.60;77.70;;;;;;5020777;28;20377;-82
2022/07/04 06:03:14;;;;;;;;;;;25.70;75.60;;;;;;5020911;28;20024;-84
2022/07/04 06:05:39;;;;;;;;;;;27.00;72.80;;;;;;5020796;28;19931;-84
2022/07/04 06:08:05;;;;;;;;;;;27.60;69.50;;;;;;5018306;28;19917;-84
2022/07/04 06:10:31;;;;;;;;;;;26.80;72.30;;;;;;5022871;28;19999;-83
2022/07/04 06:12:56;;;;;;;;;;;27.50;72.30;;;;;;5020891;28;19975;-83
2022/07/04 06:15:22;;;;;;;;;;;28.50;68.30;;;;;;5022223;28;19913;-84
2022/07/04 06:17:47;;;;;;;;;;;28.10;67.40;;;;;;5021315;28;19909;-84
2022/07/04 06:20:13;;;;;;;;;;;23.80;80.20;;;;;;5003582;28;19913;-84
2022/07/04 06:22:43;;;;;;;;;;;23.40;82.00;;;;;;5020838;28;20036;-83
2022/07/04 06:25:22;;;;;;;;;;;;;;;;;;;;;
2022/07/04 06:27:49;;;;;;;;;;;23.30;86.40;;;;;;5021021;28;20400;-85
2022/07/04 06:30:15;;;;;;;;;;;23.20;93.80;;;;;;5021439;28;20008;-85
2022/07/04 06:32:50;;;;;;;;;;;23.00;93.70;;;;;;5012217;28;19924;-83
2022/07/04 06:38:05;;;;;;;;;;;23.40;96.20;;;;;;5026263;28;19966;-84
2022/07/04 06:40:30;;;;;;;;;;;23.40;94.40;;;;;;5026736;28;19909;-84
2022/07/04 06:42:56;;;;;;;;;;;23.90;94.00;;;;;;5005479;28;19916;-86
2022/07/04 06:45:21;;;;;;;;;;;24.40;90.40;;;;;;5025012;28;19921;-86
2022/07/04 06:47:47;;;;;;;;;;;22.80;94.80;;;;;;5024002;28;19920;-84
2022/07/04 06:50:13;;;;;;;;;;;22.20;99.00;;;;;;5024986;28;19917;-85
2022/07/04 06:52:39;;;;;;;;;;;22.10;99.90;;;;;;5024004;28;19971;-86
2022/07/04 06:55:05;;;;;;;;;;;22.10;99.90;;;;;;5025527;28;19939;-83
2022/07/04 06:57:30;;;;;;;;;;;21.90;99.90;;;;;;5026113;28;19920;-85
2022/07/04 06:59:56;;;;;;;;;;;21.80;99.90;;;;;;5025719;28;20639;-85
2022/07/04 07:02:22;;;;;;;;;;;21.80;99.90;;;;;;5025000;28;20004;-86
2022/07/04 07:04:47;;;;;;;;;;;21.80;99.90;;;;;;5024895;28;19920;-85
2022/07/04 07:07:13;;;;;;;;;;;21.80;99.90;;;;;;5025269;28;19920;-86
2022/07/04 07:09:38;;;;;;;;;;;21.90;99.90;;;;;;5025261;28;19940;-84
2022/07/04 07:12:04;;;;;;;;;;;22.20;99.90;;;;;;5008136;28;19909;-85
2022/07/04 07:14:29;;;;;;;;;;;22.20;99.90;;;;;;5021371;28;20346;-86
2022/07/04 07:16:55;;;;;;;;;;;22.10;99.90;;;;;;5024160;28;19917;-85
2022/07/04 07:19:21;;;;;;;;;;;22.00;99.90;;;;;;5023320;28;19913;-84
2022/07/04 07:21:46;;;;;;;;;;;21.90;99.90;;;;;;5025011;28;19909;-83
2022/07/04 07:24:12;;;;;;;;;;;21.70;99.90;;;;;;5023069;28;19924;-85
2022/07/04 07:26:37;;;;;;;;;;;21.70;99.90;;;;;;5006842;28;19913;-84
2022/07/04 07:29:03;;;;;;;;;;;21.60;99.90;;;;;;5024792;28;19936;-85
2022/07/04 07:31:28;;;;;;;;;;;21.70;99.90;;;;;;5024552;28;19917;-86
2022/07/04 07:33:54;;;;;;;;;;;21.90;99.90;;;;;;5005665;28;20028;-83
2022/07/04 07:36:19;;;;;;;;;;;22.00;99.90;;;;;;5024241;28;19959;-85
2022/07/04 07:38:45;;;;;;;;;;;21.90;99.90;;;;;;5023971;28;19917;-84
2022/07/04 07:41:10;;;;;;;;;;;21.70;99.90;;;;;;5025377;28;19909;-83
2022/07/04 07:43:36;;;;;;;;;;;22.00;99.90;;;;;;5023026;28;19940;-85
2022/07/04 07:46:04;;;;;;;;;;;22.30;99.90;;;;;;5023942;28;20476;-84
2022/07/04 07:48:30;;;;;;;;;;;22.10;99.90;;;;;;5023170;28;19913;-84
2022/07/04 07:50:56;;;;;;;;;;;22.40;99.90;;;;;;5024175;28;19944;-83
2022/07/04 07:53:21;;;;;;;;;;;22.40;99.90;;;;;;5022757;28;19920;-86
2022/07/04 07:55:47;;;;;;;;;;;22.20;99.90;;;;;;5023377;28;20091;-83
2022/07/04 07:58:12;;;;;;;;;;;22.30;99.90;;;;;;5024165;28;20368;-85
2022/07/04 08:00:38;;;;;;;;;;;23.40;99.90;;;;;;5024558;28;20500;-85
2022/07/04 08:05:48;;;;;;;;;;;24.00;99.10;;;;;;5023241;28;20175;-85
2022/07/04 08:08:13;;;;;;;;;;;24.10;98.30;;;;;;5005719;28;20369;-85
2022/07/04 08:10:39;;;;;;;;;;;25.00;94.90;;;;;;5024162;28;19915;-85
2022/07/04 08:13:05;;;;;;;;;;;27.10;85.80;;;;;;5023406;28;19913;-85
2022/07/04 08:15:31;;;;;;;;;;;27.30;80.00;;;;;;5005210;28;19909;-84
2022/07/04 08:17:56;;;;;;;;;;;28.10;78.80;;;;;;5023208;28;20365;-86
2022/07/04 08:20:22;;;;;;;;;;;27.60;75.20;;;;;;5024619;28;20003;-85
2022/07/04 08:22:48;;;;;;;;;;;26.60;81.20;;;;;;5022170;28;19913;-85
2022/07/04 08:25:16;;;;;;;;;;;27.10;80.60;;;;;;5005232;28;19925;-85
2022/07/04 08:27:42;;;;;;;;;;;26.70;79.60;;;;;;5023586;28;19936;-85
2022/07/04 08:30:08;;;;;;;;;;;26.80;81.10;;;;;;5023286;28;19909;-84
2022/07/04 08:32:34;;;;;;;;;;;26.60;81.70;;;;;;5020516;28;19944;-88
2022/07/04 08:34:59;;;;;;;;;;;27.10;78.60;;;;;;5023586;28;20464;-86
2022/07/04 08:37:25;;;;;;;;;;;27.10;77.80;;;;;;5023978;28;19931;-87
2022/07/04 08:39:50;;;;;;;;;;;27.50;77.30;;;;;;5023888;28;19908;-87
2022/07/04 08:42:17;;;;;;;;;;;26.80;79.60;;;;;;5024520;28;20294;-87
2022/07/04 08:44:46;;;;;;;;;;;26.00;80.30;;;;;;5022944;28;19971;-87
2022/07/04 08:47:16;;;;;;;;;;;25.80;81.30;;;;;;5015275;28;20531;-87
2022/07/04 08:49:43;;;;;;;;;;;25.10;85.00;;;;;;5008873;28;19917;-87
2022/07/04 08:52:10;;;;;;;;;;;24.90;88.50;;;;;;5011277;28;20314;-87
2022/07/04 09:00:06;;;;;;;;;;;24.60;82.40;;;;;;5010274;28;20438;-86
2022/07/04 09:02:33;;;;;;;;;;;24.30;83.00;;;;;;5007215;28;19985;-87
2022/07/04 09:04:59;;;;;;;;;;;23.80;85.50;;;;;;5012717;28;20024;-86
2022/07/04 09:07:26;;;;;;;;;;;23.80;88.00;;;;;;4995557;28;20015;-86
2022/07/04 09:09:51;;;;;;;;;;;23.50;91.30;;;;;;5010969;28;19913;-87
2022/07/04 09:12:17;;;;;;;;;;;23.50;90.80;;;;;;5008005;28;19909;-87
2022/07/04 09:14:43;;;;;;;;;;;23.70;89.60;;;;;;5015081;28;19917;-87
2022/07/04 09:17:08;;;;;;;;;;;23.60;88.40;;;;;;5010573;28;19917;-87
2022/07/04 09:19:34;;;;;;;;;;;23.40;90.70;;;;;;5021128;28;20385;-88
2022/07/04 09:22:05;;;;;;;;;;;24.30;89.90;;;;;;5014239;28;19924;-87
2022/07/04 09:24:52;;;;;;;;;;;24.90;86.70;;;;;;5009568;28;19932;-87
2022/07/04 09:27:37;;;;;;;;;;;26.30;83.30;;;;;;5022560;28;20333;-88
2022/07/04 09:30:03;;;;;;;;;;;29.70;74.70;;;;;;5023087;28;20019;-88
2022/07/04 09:32:36;;;;;;;;;;;32.90;66.80;;;;;;5005303;28;19920;-86
2022/07/04 09:35:03;;;;;;;;;;;34.10;60.80;;;;;;5022761;28;19913;-88
2022/07/04 09:37:36;;;;;;;;;;;34.50;58.00;;;;;;5022893;28;19917;-88
2022/07/04 09:40:02;;;;;;;;;;;33.50;58.70;;;;;;5019788;28;19909;-87
2022/07/04 09:42:34;;;;;;;;;;;34.00;56.60;;;;;;5022868;28;19947;-87
2022/07/04 09:45:03;;;;;;;;;;;34.30;57.50;;;;;;5021068;28;19924;-87
2022/07/04 09:47:29;;;;;;;;;;;34.10;56.40;;;;;;5022854;28;19948;-85
2022/07/04 09:50:02;;;;;;;;;;;33.70;56.00;;;;;;5022977;28;19959;-87
2022/07/04 09:52:29;;;;;;;;;;;34.10;55.10;;;;;;5020922;28;19916;-87
2022/07/04 09:54:59;;;;;;;;;;;34.30;57.50;;;;;;5025920;28;19912;-86
2022/07/04 09:57:25;;;;;;;;;;;35.80;56.40;;;;;;5023181;28;19956;-86
2022/07/04 09:59:50;;;;;;;;;;;36.20;55.20;;;;;;5021888;28;19909;-87
2022/07/04 10:02:16;;;;;;;;;;;35.70;55.50;;;;;;5022867;28;19909;-88
2022/07/04 10:04:42;;;;;;;;;;;35.60;56.50;;;;;;5006120;28;19971;-87
2022/07/04 10:07:08;;;;;;;;;;;36.00;57.90;;;;;;5022031;28;19909;-87
2022/07/04 10:09:33;;;;;;;;;;;36.40;55.60;;;;;;5022850;28;19919;-87
2022/07/04 10:11:59;;;;;;;;;;;36.90;53.10;;;;;;5023156;28;19912;-86
2022/07/04 10:14:24;;;;;;;;;;;36.40;51.90;;;;;;5019824;28;19913;-87
2022/07/04 10:16:50;;;;;;;;;;;35.90;52.20;;;;;;5022426;28;19921;-87
2022/07/04 10:19:16;;;;;;;;;;;35.80;54.10;;;;;;5022122;28;19924;-87
2022/07/04 10:21:41;;;;;;;;;;;35.60;55.40;;;;;;5022571;28;19915;-88
2022/07/04 10:24:08;;;;;;;;;;;35.00;54.10;;;;;;5019634;28;19932;-86
2022/07/04 10:26:35;;;;;;;;;;;36.50;56.50;;;;;;5020740;28;20075;-86
2022/07/04 10:29:00;;;;;;;;;;;37.00;53.00;;;;;;5021536;28;19920;-86
2022/07/04 10:31:28;;;;;;;;;;;36.70;53.90;;;;;;5021393;28;19920;-86
2022/07/04 10:33:54;;;;;;;;;;;37.10;52.70;;;;;;5019244;28;20436;-86
2022/07/04 10:36:21;;;;;;;;;;;36.50;52.30;;;;;;5021843;28;19913;-85
2022/07/04 10:38:50;;;;;;;;;;;36.30;55.10;;;;;;5020977;28;19917;-86
2022/07/04 10:41:19;;;;;;;;;;;35.30;56.20;;;;;;5022458;28;20695;-86
2022/07/04 10:43:48;;;;;;;;;;;34.80;56.50;;;;;;5020284;28;20445;-85
2022/07/04 10:46:14;;;;;;;;;;;32.90;57.30;;;;;;5021113;28;19953;-85
2022/07/04 10:48:54;;;;;;;;;;;31.80;60.40;;;;;;5003847;28;20312;-85
2022/07/04 10:51:57;;;;;;;;;;;31.10;58.10;;;;;;5021136;28;19996;-85
2022/07/04 10:54:33;;;;;;;;;;;30.30;61.10;;;;;;4945489;28;19921;-86
2022/07/04 10:57:16;;;;;;;;;;;30.30;65.80;;;;;;4960469;28;19914;-84
2022/07/04 10:59:43;;;;;;;;;;;29.40;66.00;;;;;;4960517;28;20670;-84
2022/07/04 11:02:11;;;;;;;;;;;29.40;66.90;;;;;;4962625;28;20024;-85
2022/07/04 11:04:49;;;;;;;;;;;29.20;66.10;;;;;;4956048;28;20293;-85
2022/07/04 11:07:15;;;;;;;;;;;29.60;70.00;;;;;;4959890;28;19910;-85
2022/07/04 11:09:42;;;;;;;;;;;29.00;70.70;;;;;;4960538;28;20071;-85
2022/07/04 11:12:08;;;;;;;;;;;28.60;80.70;;;;;;4960284;28;19910;-88
2022/07/04 11:14:47;;;;;;;;;;;28.10;72.30;;;;;;4956049;28;20614;-85
2022/07/04 11:17:19;;;;;;;;;;;28.20;74.70;;;;;;4959189;28;20000;-85
2022/07/04 11:19:45;;;;;;;;;;;28.60;76.90;;;;;;4958160;28;19914;-85
2022/07/04 11:22:11;;;;;;;;;;;28.40;74.60;;;;;;4961135;28;20080;-85
2022/07/04 11:24:37;;;;;;;;;;;28.30;76.90;;;;;;4981434;28;19940;-85
2022/07/04 11:27:03;;;;;;;;;;;28.30;76.40;;;;;;5023984;28;20505;-86
2022/07/04 11:29:29;;;;;;;;;;;28.30;76.50;;;;;;5024415;28;20015;-87
2022/07/04 11:31:55;;;;;;;;;;;27.90;83.60;;;;;;5024432;28;19921;-87
2022/07/04 11:34:21;;;;;;;;;;;27.60;80.60;;;;;;5021942;28;20455;-88
2022/07/04 11:36:48;;;;;;;;;;;27.70;81.20;;;;;;5024808;28;19913;-87
2022/07/04 11:39:19;;;;;;;;;;;27.60;80.90;;;;;;5006988;28;20564;-88
2022/07/04 11:47:23;;;;;;;;;;;27.90;87.50;;;;;;5024110;28;19919;-87
2022/07/04 11:49:48;;;;;;;;;;;27.40;81.10;;;;;;5025267;28;20308;-87
2022/07/04 11:52:15;;;;;;;;;;;27.80;89.60;;;;;;5024046;28;19909;-87
2022/07/04 11:54:41;;;;;;;;;;;27.90;86.00;;;;;;5024256;28;20275;-87
2022/07/04 11:57:14;;;;;;;;;;;27.70;80.90;;;;;;5030349;28;19913;-87
2022/07/04 11:59:40;;;;;;;;;;;27.60;79.50;;;;;;5024467;28;19913;-87
2022/07/04 12:02:12;;;;;;;;;;;27.40;84.10;;;;;;5024241;28;20676;-87
2022/07/04 12:04:41;;;;;;;;;;;27.40;85.80;;;;;;5022742;28;19917;-86
2022/07/04 12:07:11;;;;;;;;;;;27.40;86.60;;;;;;5024698;28;21381;-86
2022/07/04 12:09:37;;;;;;;;;;;27.70;88.80;;;;;;5005276;28;19920;-86
2022/07/04 12:12:02;;;;;;;;;;;27.10;80.20;;;;;;5009499;28;19913;-87
2022/07/04 12:14:28;;;;;;;;;;;27.40;86.00;;;;;;5022781;28;19995;-87
2022/07/04 12:17:12;;;;;;;;;;;27.40;84.50;;;;;;5024077;28;20419;-88
2022/07/04 12:19:37;;;;;;;;;;;27.60;86.90;;;;;;5024247;28;20051;-86
2022/07/04 12:22:03;;;;;;;;;;;27.60;82.00;;;;;;5023917;28;20447;-87
2022/07/04 12:24:38;;;;;;;;;;;27.40;80.20;;;;;;5004008;28;19924;-88
2022/07/04 12:27:04;;;;;;;;;;;27.20;77.60;;;;;;5003660;28;19909;-88
2022/07/04 12:29:29;;;;;;;;;;;27.60;87.80;;;;;;5024506;28;19917;-87
2022/07/04 12:31:55;;;;;;;;;;;27.70;87.30;;;;;;5024060;28;20102;-87
2022/07/04 12:34:21;;;;;;;;;;;27.50;81.70;;;;;;5021312;28;20002;-88
2022/07/04 12:36:53;;;;;;;;;;;27.40;82.60;;;;;;5024159;28;19920;-88
2022/07/04 12:39:31;;;;;;;;;;;27.20;89.20;;;;;;5019694;28;19920;-87
2022/07/04 12:42:07;;;;;;;;;;;27.10;83.10;;;;;;5022815;28;19960;-86
2022/07/04 12:44:33;;;;;;;;;;;27.10;79.60;;;;;;5021041;28;19916;-87
2022/07/04 12:46:58;;;;;;;;;;;27.10;82.70;;;;;;5011031;28;19924;-86
2022/07/04 12:49:24;;;;;;;;;;;27.10;83.20;;;;;;5023302;28;19916;-86
2022/07/04 12:51:50;;;;;;;;;;;27.10;83.70;;;;;;5023882;28;19909;-87
2022/07/04 12:54:16;;;;;;;;;;;27.10;79.70;;;;;;5021384;28;19971;-87
2022/07/04 12:56:42;;;;;;;;;;;27.00;85.60;;;;;;5023887;28;20028;-87
2022/07/04 12:59:18;;;;;;;;;;;26.80;84.30;;;;;;5022752;28;19913;-85
2022/07/04 13:01:45;;;;;;;;;;;26.80;87.70;;;;;;5022118;28;19913;-86
2022/07/04 13:04:11;;;;;;;;;;;26.80;83.60;;;;;;5020354;28;20022;-87
2022/07/04 13:06:37;;;;;;;;;;;26.90;89.00;;;;;;5022996;28;20456;-86
2022/07/04 13:09:04;;;;;;;;;;;27.00;90.20;;;;;;5023102;28;19917;-85
2022/07/04 13:14:14;;;;;;;;;;;27.10;90.50;;;;;;5017197;28;19951;-87
2022/07/04 13:16:39;;;;;;;;;;;27.10;82.80;;;;;;5022124;28;19916;-87
2022/07/04 13:19:05;;;;;;;;;;;26.90;81.70;;;;;;5021345;28;20469;-86
2022/07/04 13:21:30;;;;;;;;;;;27.00;89.30;;;;;;5023139;28;20424;-87
2022/07/04 13:23:56;;;;;;;;;;;26.90;88.00;;;;;;5002926;28;20504;-86
2022/07/04 13:26:21;;;;;;;;;;;26.90;87.50;;;;;;5022417;28;20016;-86
2022/07/04 13:28:47;;;;;;;;;;;26.80;80.30;;;;;;5022496;28;19913;-88
2022/07/04 13:31:13;;;;;;;;;;;26.90;84.30;;;;;;5023571;28;19917;-87
2022/07/04 13:33:40;;;;;;;;;;;26.90;86.70;;;;;;5003600;28;20358;-86
2022/07/04 13:36:05;;;;;;;;;;;26.90;82.20;;;;;;5023061;28;19913;-86
2022/07/04 13:38:31;;;;;;;;;;;27.10;87.80;;;;;;5022688;28;19912;-87
2022/07/04 13:40:57;;;;;;;;;;;27.10;77.10;;;;;;5023178;28;19941;-87
2022/07/04 13:43:23;;;;;;;;;;;27.00;77.70;;;;;;5021763;28;19917;-87
2022/07/04 13:45:49;;;;;;;;;;;26.90;82.60;;;;;;5022481;28;19971;-87
2022/07/04 13:48:14;;;;;;;;;;;26.80;76.10;;;;;;5022841;28;19953;-88
2022/07/04 13:50:40;;;;;;;;;;;26.80;81.70;;;;;;5023989;28;19909;-86
2022/07/04 13:53:09;;;;;;;;;;;26.80;81.60;;;;;;5021657;28;19913;-86
2022/07/04 13:55:35;;;;;;;;;;;26.80;82.50;;;;;;5009387;28;19919;-85
2022/07/04 13:58:05;;;;;;;;;;;26.90;82.10;;;;;;5022977;28;19913;-86
2022/07/04 14:00:30;;;;;;;;;;;26.90;80.90;;;;;;5021796;28;19913;-86
2022/07/04 14:02:56;;;;;;;;;;;27.30;86.70;;;;;;5016283;28;20409;-87
2022/07/04 14:05:21;;;;;;;;;;;27.60;90.10;;;;;;5007008;28;19940;-88
2022/07/04 14:07:47;;;;;;;;;;;28.00;91.50;;;;;;5022594;28;19933;-87
2022/07/04 14:10:13;;;;;;;;;;;27.80;81.60;;;;;;5022227;28;19913;-87
2022/07/04 14:12:41;;;;;;;;;;;27.40;80.70;;;;;;5021908;28;20031;-86
2022/07/04 14:15:06;;;;;;;;;;;27.10;81.60;;;;;;5021582;28;19928;-89
2022/07/04 14:17:32;;;;;;;;;;;27.10;89.40;;;;;;5021887;28;19913;-89
2022/07/04 14:19:58;;;;;;;;;;;27.00;89.50;;;;;;5021824;28;19909;-87
2022/07/04 14:22:23;;;;;;;;;;;26.90;89.40;;;;;;5022016;28;19913;-86
2022/07/04 14:24:49;;;;;;;;;;;26.80;86.60;;;;;;5021951;28;20593;-87
2022/07/04 14:27:14;;;;;;;;;;;26.60;84.80;;;;;;5020876;28;19912;-87
2022/07/04 14:29:40;;;;;;;;;;;26.60;85.30;;;;;;5021770;28;19991;-86
2022/07/04 14:32:06;;;;;;;;;;;26.90;93.90;;;;;;5021678;28;19925;-86
2022/07/04 14:34:32;;;;;;;;;;;26.90;89.90;;;;;;5019546;28;19917;-86
2022/07/04 14:36:57;;;;;;;;;;;26.70;84.20;;;;;;5021874;28;19959;-88
2022/07/04 14:39:23;;;;;;;;;;;26.80;90.80;;;;;;5004561;28;20368;-87
2022/07/04 14:41:49;;;;;;;;;;;26.80;91.50;;;;;;5021748;28;19920;-86
2022/07/04 14:44:14;;;;;;;;;;;26.80;90.40;;;;;;5015140;28;19952;-89